首页
METAR-TAF:

METAR-TAF

机场 :

內排國際機場

河內, 越南

纬度: 21-01N, 经度: 105-48E, 海拔: 6米

当前天气观测

该预报发布于13分钟前的10:00 UTC
风速4节,风向
温度 29°C
湿度 84%
气压 1003 hPa
能见度10公里或以上
散云层高于2000英尺

METAR: VVNB 201000Z 08004KT 9999 SCT020 29/26 Q1003 NOSIG

时间: 17:13 (10:13 UTC)

预报

该预报发布于5小时和13分钟前的05:00 UTC
预报有效从20日的 06点(UTC)到 21日的 06点(UTC)
风速6节,风向东转东北
能見度: 6000
散云层高于1500英尺
短暂存在
从 20日的 08点(UTC)到 20日的 14点(UTC)
能見度: 4000
散云层高于1000英尺
少量云层高于2700英尺, 积雨云.
多云层高于4000英尺
雷暴, 雨
短暂存在
从 20日的 18点(UTC)到 20日的 24点(UTC)
能見度: 4000
散云层高于1000英尺
少量云层高于2700英尺, 积雨云.
多云层高于4000英尺
雷暴, 雨,

TAF: VVNB 200500Z 2006/2106 07006KT 6000 SCT015 TEMPO 2008/2014 4000 TSRA SCT010 FEW027CB BKN040 TEMPO 2018/2024 4000 TSRA SCT010 FEW027CB BKN040

超过4000个机场的气象观测和天气预报(METAR&TAF报告)。

可查询的气象台以黄色和红色小点在地图上表示。

将鼠标移到小点上方,可查看气象台名称。

然后点击查看天气观测和预报。

如需切换地图:点击带黑十字的绿色按钮放大地图;点击带横线的绿色按钮缩小地图;或者点击绿色箭头查看邻近地区的地图。


METAR-TAF: